Crosby, North Dakota
Current Conditions -  °F | °C
As of 11:35 PM on Saturday 25 Oct 2014 (Local Time) from KD50 Reporting Station
Clear Clear  
Wind Chill: 50°   Ceiling: Unl
Heat Index: 50°   Visibility: 10mi
Dew Point: 30°   Wind: 17mph
Humidity: 47%   Direction: 140°SE
Pressure: 29.79"   Gusts: 23mph
Location:  48.91°N, 103.29°W
Report Text: KD50 260435Z AUTO 14015G20KT 10SM CLR 10/M01 A2979 RMK AO2
Loading
Personal Weather Stations






























Interactive Weather Map
Tropical Storm Tracking
New forecast layout! Learn more

10-Day Weather Forecast

Advertisements
Track Severe Weather on mobile